createdAt,value
2022-11-24T00:00:29.513Z,0.00
2022-11-24T00:01:29.491Z,0.00
2022-11-24T00:02:29.622Z,0.00
2022-11-24T00:03:29.508Z,0.00
2022-11-24T00:04:29.463Z,0.00
2022-11-24T00:05:29.415Z,0.00
2022-11-24T00:06:29.395Z,0.00
2022-11-24T00:07:29.523Z,0.00
2022-11-24T00:08:29.364Z,0.00
2022-11-24T00:09:29.371Z,0.00
2022-11-24T00:10:29.323Z,0.00
2022-11-24T00:11:29.318Z,0.00
2022-11-24T00:12:29.290Z,0.00
2022-11-24T00:13:29.280Z,0.00
2022-11-24T00:14:29.278Z,0.00
2022-11-24T00:15:29.248Z,0.00
2022-11-24T00:16:29.276Z,0.00
2022-11-24T00:17:29.194Z,0.00
2022-11-24T00:18:29.174Z,0.00
2022-11-24T00:19:29.214Z,0.00
2022-11-24T00:20:29.137Z,0.00
2022-11-24T00:21:29.122Z,0.00
2022-11-24T00:22:29.127Z,0.00
2022-11-24T00:23:29.126Z,0.00
2022-11-24T00:24:29.092Z,0.00
2022-11-24T00:25:29.050Z,0.00
2022-11-24T00:26:29.018Z,0.00
2022-11-24T00:27:30.016Z,0.00
2022-11-24T00:28:28.993Z,0.00
2022-11-24T00:29:29.008Z,0.00
2022-11-24T00:30:29.014Z,0.00
2022-11-24T00:31:28.983Z,0.00
2022-11-24T00:32:28.913Z,0.00
2022-11-24T00:33:28.920Z,0.00
2022-11-24T00:34:28.911Z,0.00
2022-11-24T00:35:28.869Z,0.00
2022-11-24T00:36:28.847Z,0.00
2022-11-24T00:37:28.824Z,0.00
2022-11-24T00:38:28.806Z,0.00
2022-11-24T00:39:28.816Z,0.00
2022-11-24T00:40:34.727Z,0.00
2022-11-24T00:41:30.748Z,0.00
2022-11-24T00:42:28.736Z,0.00
2022-11-24T00:43:28.723Z,0.00
2022-11-24T00:44:28.716Z,0.00
2022-11-24T00:45:28.701Z,0.00
2022-11-24T00:46:28.854Z,0.00
2022-11-24T00:47:28.663Z,0.00
2022-11-24T00:48:28.626Z,0.00
2022-11-24T00:49:28.631Z,0.00
2022-11-24T00:50:28.583Z,0.00
2022-11-24T00:51:28.580Z,0.00
2022-11-24T00:52:28.550Z,0.00
2022-11-24T00:53:28.533Z,0.00
2022-11-24T00:54:28.535Z,0.00
2022-11-24T00:55:28.509Z,0.00
2022-11-24T00:56:28.480Z,0.00
2022-11-24T00:57:28.459Z,0.00
2022-11-24T00:58:28.439Z,0.00
2022-11-24T00:59:28.451Z,0.00
2022-11-24T01:00:28.404Z,0.00
2022-11-24T01:01:28.477Z,0.00
2022-11-24T01:02:28.385Z,0.00
2022-11-24T01:03:28.370Z,0.00
2022-11-24T01:04:28.358Z,0.00
2022-11-24T01:05:28.343Z,0.00
2022-11-24T01:06:28.306Z,0.00
2022-11-24T01:07:28.347Z,0.00
2022-11-24T01:08:28.282Z,0.00
2022-11-24T01:09:28.268Z,0.00
2022-11-24T01:10:28.229Z,0.00
2022-11-24T01:11:28.210Z,0.00
2022-11-24T01:12:28.184Z,0.00
2022-11-24T01:13:28.172Z,0.00
2022-11-24T01:14:28.176Z,0.00
2022-11-24T01:15:28.233Z,0.00
2022-11-24T01:16:28.151Z,0.00
2022-11-24T01:17:28.096Z,0.00
2022-11-24T01:18:28.082Z,0.00
2022-11-24T01:19:28.090Z,0.00
2022-11-24T01:20:28.050Z,0.00
2022-11-24T01:21:28.035Z,0.00
2022-11-24T01:22:28.017Z,0.00
2022-11-24T01:23:28.000Z,0.00
2022-11-24T01:24:27.994Z,0.00
2022-11-24T01:25:27.965Z,0.00
2022-11-24T01:26:27.945Z,0.00
2022-11-24T01:27:27.924Z,0.00
2022-11-24T01:28:27.905Z,0.00
2022-11-24T01:29:27.919Z,0.00
2022-11-24T01:30:27.871Z,0.00
2022-11-24T01:31:27.899Z,0.00
2022-11-24T01:32:27.836Z,0.00
2022-11-24T01:33:27.820Z,0.00
2022-11-24T01:34:27.829Z,0.00
2022-11-24T01:35:27.796Z,0.00
2022-11-24T01:36:27.767Z,0.00
2022-11-24T01:37:27.752Z,0.00
2022-11-24T01:38:27.732Z,0.00
2022-11-24T01:39:27.747Z,0.00
2022-11-24T01:40:27.701Z,0.00
2022-11-24T01:41:27.673Z,0.00
2022-11-24T01:42:27.661Z,0.00
2022-11-24T01:43:27.636Z,0.00
2022-11-24T01:44:27.648Z,0.00
2022-11-24T01:45:27.607Z,0.00
2022-11-24T01:46:27.629Z,0.00
2022-11-24T01:47:27.565Z,0.00
2022-11-24T01:48:27.963Z,0.00
2022-11-24T01:49:27.560Z,0.00
2022-11-24T01:50:27.511Z,0.00
2022-11-24T01:51:27.491Z,0.00
2022-11-24T01:52:27.485Z,0.00
2022-11-24T01:53:27.478Z,0.00
2022-11-24T01:54:27.461Z,0.00
2022-11-24T01:55:27.420Z,0.00
2022-11-24T01:56:27.404Z,0.00
2022-11-24T01:57:27.391Z,0.00
2022-11-24T01:58:27.359Z,0.00
2022-11-24T01:59:27.386Z,0.00
2022-11-24T02:00:27.321Z,0.00
2022-11-24T02:01:27.346Z,0.00
2022-11-24T02:02:27.381Z,0.00
2022-11-24T02:03:27.356Z,0.00
2022-11-24T02:04:27.285Z,0.00
2022-11-24T02:05:27.248Z,0.00
2022-11-24T02:06:27.208Z,0.00
2022-11-24T02:07:27.219Z,0.00
2022-11-24T02:08:27.176Z,0.00
2022-11-24T02:09:27.196Z,0.00
2022-11-24T02:10:27.140Z,0.00
2022-11-24T02:11:27.122Z,0.00
2022-11-24T02:12:27.098Z,0.00
2022-11-24T02:13:27.086Z,0.00
2022-11-24T02:14:27.097Z,0.00
2022-11-24T02:15:27.054Z,0.00
2022-11-24T02:16:27.077Z,0.00
2022-11-24T02:17:27.014Z,0.00
2022-11-24T02:18:26.997Z,0.00
2022-11-24T02:19:26.991Z,0.00
2022-11-24T02:20:26.948Z,0.00
2022-11-24T02:21:26.931Z,0.00
2022-11-24T02:22:26.912Z,0.00
2022-11-24T02:23:26.893Z,0.00
2022-11-24T02:24:26.902Z,0.00
2022-11-24T02:25:26.854Z,0.00
2022-11-24T02:26:26.832Z,0.00
2022-11-24T02:27:26.815Z,0.00
2022-11-24T02:28:26.799Z,0.00
2022-11-24T02:29:26.806Z,0.00
2022-11-24T02:30:26.761Z,0.00
2022-11-24T02:31:26.785Z,0.00
2022-11-24T02:32:26.723Z,0.00
2022-11-24T02:33:26.705Z,0.00
2022-11-24T02:34:26.691Z,0.00
2022-11-24T02:35:26.693Z,0.00
2022-11-24T02:36:26.651Z,0.00
2022-11-24T02:37:26.626Z,0.00
2022-11-24T02:38:26.643Z,0.00
2022-11-24T02:39:26.619Z,0.00
2022-11-24T02:40:26.568Z,0.00
2022-11-24T02:41:26.551Z,0.00
2022-11-24T02:42:26.529Z,0.00
2022-11-24T02:43:26.514Z,0.00
2022-11-24T02:44:26.534Z,0.00
2022-11-24T02:45:26.510Z,0.00
2022-11-24T02:46:26.511Z,0.00
2022-11-24T02:47:26.438Z,0.00
2022-11-24T02:48:26.436Z,0.00
2022-11-24T02:49:26.395Z,0.00
2022-11-24T02:50:26.405Z,0.00
2022-11-24T02:51:26.365Z,0.00
2022-11-24T02:52:26.341Z,0.00
2022-11-24T02:53:26.327Z,0.00
2022-11-24T02:54:26.305Z,0.00
2022-11-24T02:55:26.310Z,0.00
2022-11-24T02:56:26.265Z,0.00
2022-11-24T02:57:26.244Z,0.00
2022-11-24T02:58:26.242Z,0.00
2022-11-24T02:59:26.209Z,0.00
2022-11-24T03:00:26.214Z,0.00
2022-11-24T03:01:26.231Z,0.00
2022-11-24T03:02:26.199Z,0.00
2022-11-24T03:03:26.140Z,0.00
2022-11-24T03:04:26.126Z,0.00
2022-11-24T03:05:26.125Z,0.00
2022-11-24T03:06:26.082Z,0.00
2022-11-24T03:07:26.133Z,0.00
2022-11-24T03:08:26.046Z,0.00
2022-11-24T03:09:26.034Z,0.00
2022-11-24T03:10:26.053Z,0.00
2022-11-24T03:11:25.986Z,0.00
2022-11-24T03:12:25.973Z,0.00
2022-11-24T03:13:25.948Z,0.00
2022-11-24T03:14:25.933Z,0.00
2022-11-24T03:15:25.942Z,0.00
2022-11-24T03:16:25.911Z,0.00
2022-11-24T03:17:25.877Z,0.00
2022-11-24T03:18:25.852Z,0.00
2022-11-24T03:19:25.838Z,0.00
2022-11-24T03:20:25.846Z,0.00
2022-11-24T03:21:25.798Z,0.00
2022-11-24T03:22:25.778Z,0.00
2022-11-24T03:23:25.867Z,0.00
2022-11-24T03:24:25.741Z,0.00
2022-11-24T03:25:25.756Z,0.00
2022-11-24T03:26:25.713Z,0.00
2022-11-24T03:27:25.685Z,0.00
2022-11-24T03:28:25.662Z,0.00
2022-11-24T03:29:25.652Z,0.00
2022-11-24T03:30:25.655Z,0.00
2022-11-24T03:31:25.660Z,0.00
2022-11-24T03:32:25.597Z,0.00
2022-11-24T03:33:25.585Z,0.00
2022-11-24T03:34:25.555Z,0.00
2022-11-24T03:35:25.568Z,0.00
2022-11-24T03:36:25.517Z,0.00
2022-11-24T03:37:25.585Z,0.00
2022-11-24T03:38:25.483Z,0.00
2022-11-24T03:39:25.489Z,0.00
2022-11-24T03:40:25.467Z,0.00
2022-11-24T03:41:25.429Z,0.00
2022-11-24T03:42:25.434Z,0.00
2022-11-24T03:43:25.394Z,0.00
2022-11-24T03:44:25.384Z,0.00
2022-11-24T03:46:27.377Z,0.00
2022-11-24T03:47:25.335Z,0.00
2022-11-24T03:48:25.297Z,0.00
2022-11-24T03:49:25.278Z,0.00
2022-11-24T03:50:25.283Z,0.00
2022-11-24T03:51:25.238Z,0.00
2022-11-24T03:52:25.222Z,0.00
2022-11-24T03:53:25.203Z,0.00
2022-11-24T03:54:25.182Z,0.00
2022-11-24T03:55:25.189Z,0.00
2022-11-24T03:56:25.145Z,0.00
2022-11-24T03:57:25.133Z,0.00
2022-11-24T03:58:25.098Z,0.00
2022-11-24T03:59:26.090Z,0.00
2022-11-24T04:00:25.097Z,0.00
2022-11-24T04:01:25.130Z,0.00
2022-11-24T04:02:25.075Z,0.00
2022-11-24T04:03:25.008Z,0.00
2022-11-24T04:04:25.002Z,0.00
2022-11-24T04:05:25.000Z,0.00
2022-11-24T04:06:24.958Z,0.00
2022-11-24T04:07:24.969Z,0.00
2022-11-24T04:08:24.927Z,0.00
2022-11-24T04:09:24.902Z,0.00
2022-11-24T04:10:24.907Z,0.00
2022-11-24T04:11:24.867Z,0.00
2022-11-24T04:12:24.863Z,0.00
2022-11-24T04:13:24.837Z,0.00
2022-11-24T04:14:24.808Z,0.00
2022-11-24T04:15:24.837Z,0.00
2022-11-24T04:16:24.816Z,0.00
2022-11-24T04:17:24.755Z,0.00
2022-11-24T04:18:24.730Z,0.00
2022-11-24T04:19:24.713Z,0.00
2022-11-24T04:20:24.730Z,0.00
2022-11-24T04:21:24.675Z,0.00
2022-11-24T04:22:24.658Z,0.00
2022-11-24T04:23:24.650Z,0.00
2022-11-24T04:24:24.629Z,0.00
2022-11-24T04:25:24.628Z,0.00
2022-11-24T04:26:24.587Z,0.00
2022-11-24T04:27:25.559Z,0.00
2022-11-24T04:28:24.545Z,0.00
2022-11-24T04:29:24.534Z,0.00
2022-11-24T04:30:24.535Z,0.00
2022-11-24T04:31:24.536Z,0.00
2022-11-24T04:32:24.463Z,0.00
2022-11-24T04:33:24.461Z,0.00
2022-11-24T04:34:24.425Z,0.00
2022-11-24T04:35:24.437Z,0.00
2022-11-24T04:36:24.387Z,0.00
2022-11-24T04:37:24.368Z,0.00
2022-11-24T04:39:23.026Z,0.00
2022-11-24T04:39:28.512Z,0.00
2022-11-24T04:40:25.339Z,0.00
2022-11-24T04:41:24.299Z,0.00
2022-11-24T04:42:24.277Z,0.00
2022-11-24T04:43:24.260Z,0.00
2022-11-24T04:44:24.247Z,0.00
2022-11-24T04:45:24.253Z,0.00
2022-11-24T04:46:24.252Z,0.00
2022-11-24T04:47:24.188Z,0.00
2022-11-24T04:48:24.166Z,0.00
2022-11-24T04:49:24.146Z,0.00
2022-11-24T04:50:24.155Z,0.00
2022-11-24T04:51:24.101Z,0.00
2022-11-24T04:52:25.099Z,0.00
2022-11-24T04:53:24.084Z,0.00
2022-11-24T04:54:24.083Z,0.00
2022-11-24T04:55:24.071Z,0.00
2022-11-24T04:56:24.020Z,0.00
2022-11-24T04:57:24.028Z,0.00
2022-11-24T04:58:23.985Z,0.00
2022-11-24T04:59:23.966Z,0.00
2022-11-24T05:00:23.973Z,0.00
2022-11-24T05:01:23.933Z,0.00
2022-11-24T05:02:23.919Z,0.00
2022-11-24T05:03:23.894Z,0.00
2022-11-24T05:04:23.939Z,0.00
2022-11-24T05:05:23.890Z,0.00
2022-11-24T05:06:23.837Z,0.00
2022-11-24T05:07:23.855Z,0.00
2022-11-24T05:08:23.797Z,0.00
2022-11-24T05:09:32.614Z,0.00
2022-11-24T05:10:24.767Z,0.00
2022-11-24T05:11:23.743Z,0.00
2022-11-24T05:12:23.729Z,0.00
2022-11-24T05:13:23.707Z,0.00
2022-11-24T05:14:23.716Z,0.00
2022-11-24T05:15:23.700Z,0.00
2022-11-24T05:16:23.699Z,0.00
2022-11-24T05:17:23.637Z,0.00
2022-11-24T05:18:23.633Z,0.00
2022-11-24T05:19:26.260Z,0.00
2022-11-24T05:20:23.615Z,0.00
2022-11-24T05:21:23.573Z,0.00
2022-11-24T05:22:23.553Z,0.00
2022-11-24T05:23:23.526Z,0.00
2022-11-24T05:24:23.512Z,0.00
2022-11-24T05:25:23.516Z,0.00
2022-11-24T05:26:23.469Z,0.00
2022-11-24T05:27:23.455Z,0.00
2022-11-24T05:28:23.437Z,0.00
2022-11-24T05:29:23.487Z,0.00
2022-11-24T05:30:23.448Z,0.00
2022-11-24T05:31:23.452Z,0.00
2022-11-24T05:32:23.365Z,0.00
2022-11-24T05:33:23.347Z,0.00
2022-11-24T05:34:23.328Z,0.00
2022-11-24T05:35:23.333Z,0.00
2022-11-24T05:36:23.327Z,0.00
2022-11-24T05:37:23.272Z,0.00
2022-11-24T05:38:23.268Z,0.00
2022-11-24T05:39:23.349Z,0.00
2022-11-24T05:40:23.255Z,0.00
2022-11-24T05:41:23.206Z,0.00
2022-11-24T05:42:23.195Z,0.00
2022-11-24T05:43:23.188Z,0.00
2022-11-24T05:44:23.143Z,0.00
2022-11-24T05:45:23.147Z,0.00
2022-11-24T05:46:23.192Z,0.00
2022-11-24T05:47:23.089Z,0.00
2022-11-24T05:48:23.085Z,0.00
2022-11-24T05:49:23.049Z,0.00
2022-11-24T05:50:23.076Z,0.00
2022-11-24T05:51:23.036Z,0.00
2022-11-24T05:52:23.003Z,0.00
2022-11-24T05:53:22.980Z,0.00
2022-11-24T05:54:22.958Z,0.00
2022-11-24T05:55:22.965Z,0.00
2022-11-24T05:56:23.013Z,0.00
2022-11-24T05:57:22.903Z,0.00
2022-11-24T05:58:22.907Z,0.00
2022-11-24T05:59:22.877Z,0.00
2022-11-24T06:00:22.878Z,0.00
2022-11-24T06:01:22.846Z,0.00
2022-11-24T06:02:22.894Z,0.00
2022-11-24T06:03:22.792Z,0.00
2022-11-24T06:04:22.776Z,0.00
2022-11-24T06:05:22.785Z,0.00
2022-11-24T06:06:22.736Z,0.00
2022-11-24T06:07:22.822Z,0.00
2022-11-24T06:08:25.598Z,0.00
2022-11-24T06:09:23.680Z,0.00
2022-11-24T06:10:22.694Z,0.00
2022-11-24T06:11:22.641Z,0.00
2022-11-24T06:12:22.629Z,4.00
2022-11-24T06:13:22.648Z,4.00
2022-11-24T06:14:22.591Z,0.00
2022-11-24T06:15:22.623Z,4.00
2022-11-24T06:16:22.568Z,4.00
2022-11-24T06:17:22.553Z,0.00
2022-11-24T06:18:22.513Z,4.00
2022-11-24T06:19:22.491Z,4.00
2022-11-24T06:20:22.475Z,8.00
2022-11-24T06:21:22.478Z,8.00
2022-11-24T06:22:22.431Z,8.00
2022-11-24T06:23:22.416Z,8.00
2022-11-24T06:24:22.410Z,12.00
2022-11-24T06:25:22.406Z,12.00
2022-11-24T06:26:22.362Z,16.00
2022-11-24T06:27:22.341Z,20.00
2022-11-24T06:28:22.317Z,24.00
2022-11-24T06:29:22.300Z,24.00
2022-11-24T06:30:22.313Z,32.00
2022-11-24T06:31:22.301Z,36.00
2022-11-24T06:32:22.248Z,44.00
2022-11-24T06:33:22.239Z,48.00
2022-11-24T06:34:22.223Z,56.00
2022-11-24T06:35:22.230Z,60.00
2022-11-24T06:36:22.201Z,68.00
2022-11-24T06:37:22.152Z,76.00
2022-11-24T06:38:24.383Z,88.00
2022-11-24T06:39:23.120Z,96.00
2022-11-24T06:40:22.101Z,104.00
2022-11-24T06:41:22.120Z,116.00
2022-11-24T06:42:22.064Z,128.00
2022-11-24T06:43:22.046Z,140.00
2022-11-24T06:44:22.026Z,152.00
2022-11-24T06:45:22.006Z,160.00
2022-11-24T06:46:22.049Z,168.00
2022-11-24T06:47:21.980Z,180.00
2022-11-24T06:48:21.975Z,192.00
2022-11-24T06:49:21.940Z,200.00
2022-11-24T06:50:21.932Z,212.00
2022-11-24T06:51:21.921Z,224.00
2022-11-24T06:52:21.873Z,228.00
2022-11-24T06:53:21.853Z,236.00
2022-11-24T06:54:21.850Z,248.00
2022-11-24T06:55:21.815Z,256.00
2022-11-24T06:56:21.824Z,268.00
2022-11-24T06:57:21.781Z,280.00
2022-11-24T06:58:21.757Z,296.00
2022-11-24T06:59:21.747Z,316.00
2022-11-24T07:00:21.723Z,336.00
2022-11-24T07:01:21.762Z,356.00
2022-11-24T07:02:21.692Z,384.00
2022-11-24T07:03:21.757Z,404.00
2022-11-24T07:04:21.646Z,428.00
2022-11-24T07:05:21.667Z,448.00
2022-11-24T07:06:21.638Z,472.00
2022-11-24T07:07:21.649Z,500.00
2022-11-24T07:08:21.572Z,528.00
2022-11-24T07:09:21.583Z,556.00
2022-11-24T07:10:21.538Z,572.00
2022-11-24T07:11:21.557Z,584.00
2022-11-24T07:12:21.514Z,624.00
2022-11-24T07:13:21.525Z,656.00
2022-11-24T07:14:21.498Z,696.00
2022-11-24T07:15:21.469Z,772.00
2022-11-24T07:16:21.516Z,840.00
2022-11-24T07:17:21.414Z,904.00
2022-11-24T07:18:21.398Z,972.00
2022-11-24T07:19:24.874Z,1040.00
2022-11-24T07:20:22.358Z,1112.00
2022-11-24T07:21:21.384Z,1176.00
2022-11-24T07:22:21.343Z,1228.00
2022-11-24T07:23:21.311Z,1272.00
2022-11-24T07:24:21.311Z,1300.00
2022-11-24T07:25:21.266Z,1332.00
2022-11-24T07:26:21.288Z,1368.00
2022-11-24T07:27:21.249Z,1396.00
2022-11-24T07:28:21.218Z,1448.00
2022-11-24T07:29:21.204Z,1520.00
2022-11-24T07:30:21.188Z,1560.00
2022-11-24T07:31:21.227Z,1584.00
2022-11-24T07:32:21.181Z,1592.00
2022-11-24T07:33:22.138Z,1592.00
2022-11-24T07:34:21.112Z,1580.00
2022-11-24T07:35:21.090Z,1572.00
2022-11-24T07:36:21.089Z,1564.00
2022-11-24T07:37:21.061Z,1556.00
2022-11-24T07:38:21.026Z,1512.00
2022-11-24T07:39:21.020Z,1428.00
2022-11-24T07:40:20.989Z,1312.00
2022-11-24T07:41:21.001Z,1220.00
2022-11-24T07:42:20.954Z,1220.00
2022-11-24T07:43:20.953Z,1236.00
2022-11-24T07:44:20.920Z,1216.00
2022-11-24T07:45:20.898Z,1252.00
2022-11-24T07:46:20.984Z,1264.00
2022-11-24T07:47:20.878Z,1296.00
2022-11-24T07:48:20.844Z,1344.00
2022-11-24T07:49:20.818Z,1412.00
2022-11-24T07:50:20.805Z,1416.00
2022-11-24T07:51:20.804Z,1444.00
2022-11-24T07:52:20.765Z,1460.00
2022-11-24T07:53:20.751Z,1460.00
2022-11-24T07:54:20.742Z,1436.00
2022-11-24T07:55:20.726Z,1416.00
2022-11-24T07:56:20.719Z,1392.00
2022-11-24T07:57:20.688Z,1344.00
2022-11-24T07:58:20.670Z,1300.00
2022-11-24T07:59:20.690Z,1272.00
2022-11-24T08:00:20.622Z,1248.00
2022-11-24T08:01:20.678Z,1232.00
2022-11-24T08:02:20.591Z,1188.00
2022-11-24T08:03:20.607Z,1160.00
2022-11-24T08:04:20.551Z,1140.00
2022-11-24T08:05:20.559Z,1120.00
2022-11-24T08:06:27.205Z,1112.00
2022-11-24T08:07:22.636Z,1128.00
2022-11-24T08:08:20.495Z,1160.00
2022-11-24T08:09:20.460Z,1196.00
2022-11-24T08:10:20.451Z,1204.00
2022-11-24T08:11:20.461Z,1204.00
2022-11-24T08:12:20.411Z,1224.00
2022-11-24T08:13:20.423Z,1264.00
2022-11-24T08:14:20.374Z,1308.00
2022-11-24T08:15:20.364Z,1340.00
2022-11-24T08:16:20.454Z,1348.00
2022-11-24T08:17:20.320Z,1332.00
2022-11-24T08:18:20.304Z,1316.00
2022-11-24T08:19:20.284Z,1300.00
2022-11-24T08:20:20.263Z,1296.00
2022-11-24T08:21:20.269Z,1312.00
2022-11-24T08:22:20.256Z,1332.00
2022-11-24T08:23:20.242Z,1368.00
2022-11-24T08:24:20.202Z,1408.00
2022-11-24T08:25:20.189Z,1432.00
2022-11-24T08:26:20.211Z,1496.00
2022-11-24T08:27:20.152Z,1548.00
2022-11-24T08:28:20.121Z,1592.00
2022-11-24T08:29:20.110Z,1620.00
2022-11-24T08:30:20.107Z,1632.00
2022-11-24T08:31:20.239Z,1632.00
2022-11-24T08:32:22.454Z,1608.00
2022-11-24T08:33:21.038Z,1556.00
2022-11-24T08:34:20.100Z,1492.00
2022-11-24T08:35:19.997Z,1408.00
2022-11-24T08:36:20.008Z,1312.00
2022-11-24T08:37:19.991Z,1220.00
2022-11-24T08:38:19.939Z,1140.00
2022-11-24T08:39:19.988Z,1068.00
2022-11-24T08:40:19.905Z,1032.00
2022-11-24T08:41:19.910Z,1016.00
2022-11-24T08:42:19.864Z,1036.00
2022-11-24T08:43:19.855Z,1060.00
2022-11-24T08:44:19.830Z,1104.00
2022-11-24T08:45:21.401Z,1148.00
2022-11-24T08:46:20.841Z,1184.00
2022-11-24T08:47:19.780Z,1208.00
2022-11-24T08:48:19.759Z,1216.00
2022-11-24T08:49:19.750Z,1212.00
2022-11-24T08:50:19.725Z,1216.00
2022-11-24T08:51:19.748Z,1176.00
2022-11-24T08:52:19.699Z,1140.00
2022-11-24T08:53:19.680Z,1112.00
2022-11-24T08:54:19.760Z,1064.00
2022-11-24T08:55:19.642Z,1052.00
2022-11-24T08:56:19.666Z,1072.00
2022-11-24T08:57:21.947Z,1076.00
2022-11-24T08:58:20.580Z,1064.00
2022-11-24T08:59:19.622Z,1032.00
2022-11-24T09:00:19.712Z,1024.00
2022-11-24T09:01:20.884Z,1084.00
2022-11-24T09:02:20.541Z,1228.00
2022-11-24T09:03:19.535Z,1396.00
2022-11-24T09:04:19.641Z,1504.00
2022-11-24T09:05:50.144Z,1520.00
2022-11-24T09:06:21.501Z,1412.00
2022-11-24T09:07:19.427Z,1392.00
2022-11-24T09:08:19.403Z,1664.00
2022-11-24T09:09:19.403Z,1936.00
2022-11-24T09:10:19.369Z,2064.00
2022-11-24T09:11:19.368Z,2256.00
2022-11-24T09:12:19.332Z,2528.00
2022-11-24T09:13:19.312Z,2760.00
2022-11-24T09:14:19.308Z,2856.00
2022-11-24T09:15:19.276Z,2964.00
2022-11-24T09:16:19.399Z,3120.00
2022-11-24T09:17:19.240Z,3396.00
2022-11-24T09:18:19.261Z,3568.00
2022-11-24T09:19:19.200Z,3616.00
2022-11-24T09:20:19.178Z,3764.00
2022-11-24T09:21:19.193Z,3848.00
2022-11-24T09:22:19.161Z,4004.00
2022-11-24T09:23:19.147Z,4252.00
2022-11-24T09:24:19.110Z,4424.00
2022-11-24T09:25:19.104Z,4480.00
2022-11-24T09:26:19.099Z,4428.00
2022-11-24T09:27:19.078Z,4372.00
2022-11-24T09:28:19.037Z,4280.00
2022-11-24T09:29:19.015Z,4196.00
2022-11-24T09:30:19.004Z,4076.00
2022-11-24T09:31:19.108Z,3996.00
2022-11-24T09:32:18.959Z,3980.00
2022-11-24T09:33:18.943Z,3928.00
2022-11-24T09:34:18.927Z,3824.00
2022-11-24T09:35:18.923Z,3704.00
2022-11-24T09:36:18.918Z,3680.00
2022-11-24T09:37:18.872Z,3796.00
2022-11-24T09:38:18.853Z,4024.00
2022-11-24T09:39:18.839Z,4068.00
2022-11-24T09:40:18.827Z,3876.00
2022-11-24T09:41:18.839Z,3732.00
2022-11-24T09:42:19.326Z,3764.00
2022-11-24T09:43:18.770Z,3988.00
2022-11-24T09:44:18.755Z,4388.00
2022-11-24T09:45:35.416Z,4720.00
2022-11-24T09:46:20.783Z,5024.00
2022-11-24T09:47:18.718Z,5252.00
2022-11-24T09:48:18.684Z,5164.00
2022-11-24T09:49:18.683Z,4804.00
2022-11-24T09:50:18.647Z,4404.00
2022-11-24T09:51:18.630Z,4108.00
2022-11-24T09:52:18.639Z,3880.00
2022-11-24T09:53:18.605Z,3892.00
2022-11-24T09:54:18.576Z,4140.00
2022-11-24T09:55:18.567Z,4456.00
2022-11-24T09:56:18.546Z,4496.00
2022-11-24T09:57:18.561Z,4360.00
2022-11-24T09:58:18.524Z,4144.00
2022-11-24T09:59:18.517Z,3964.00
2022-11-24T10:00:18.513Z,3812.00
2022-11-24T10:01:18.522Z,3640.00
2022-11-24T10:02:18.471Z,3488.00
2022-11-24T10:03:18.427Z,3424.00
2022-11-24T10:04:18.457Z,3440.00
2022-11-24T10:05:18.388Z,3532.00
2022-11-24T10:06:18.379Z,3708.00
2022-11-24T10:07:18.611Z,3940.00
2022-11-24T10:08:18.342Z,4176.00
2022-11-24T10:09:18.321Z,4604.00
2022-11-24T10:10:24.310Z,5160.00
2022-11-24T10:11:20.283Z,6016.00
2022-11-24T10:12:18.297Z,6768.00
2022-11-24T10:13:18.249Z,7136.00
2022-11-24T10:14:18.246Z,7356.00
2022-11-24T10:15:18.218Z,8048.00
2022-11-24T10:16:18.245Z,9916.00
2022-11-24T10:17:18.204Z,8932.00
2022-11-24T10:18:18.168Z,8220.00
2022-11-24T10:19:18.143Z,8028.00
2022-11-24T10:20:18.214Z,7792.00
2022-11-24T10:21:18.103Z,7740.00
2022-11-24T10:22:19.117Z,7736.00
2022-11-24T10:23:18.074Z,7856.00
2022-11-24T10:24:18.049Z,7912.00
2022-11-24T10:25:18.037Z,8136.00
2022-11-24T10:26:18.018Z,13592.00
2022-11-24T10:27:18.028Z,8900.00
2022-11-24T10:28:18.008Z,8632.00
2022-11-24T10:29:17.963Z,9196.00
2022-11-24T10:30:18.001Z,12748.00
2022-11-24T10:31:18.038Z,16128.00
2022-11-24T10:32:17.904Z,11940.00
2022-11-24T10:33:17.919Z,10016.00
2022-11-24T10:34:17.869Z,9752.00
2022-11-24T10:35:17.858Z,9444.00
2022-11-24T10:36:17.833Z,9248.00
2022-11-24T10:37:17.837Z,9508.00
2022-11-24T10:38:17.795Z,14792.00
2022-11-24T10:39:17.772Z,9096.00
2022-11-24T10:40:55.872Z,8864.00
2022-11-24T10:41:19.739Z,8872.00
2022-11-24T10:42:17.758Z,8768.00
2022-11-24T10:43:17.704Z,8468.00
2022-11-24T10:44:17.733Z,8140.00
2022-11-24T10:45:17.669Z,7824.00
2022-11-24T10:46:17.670Z,7592.00
2022-11-24T10:47:17.645Z,7908.00
2022-11-24T10:48:17.623Z,8908.00
2022-11-24T10:49:17.579Z,7352.00
2022-11-24T10:50:17.557Z,7096.00
2022-11-24T10:51:17.538Z,6300.00
2022-11-24T10:52:17.522Z,6156.00
2022-11-24T10:53:17.527Z,6064.00
2022-11-24T10:54:17.475Z,5932.00
2022-11-24T10:55:17.454Z,6000.00
2022-11-24T10:56:17.443Z,5896.00
2022-11-24T10:57:17.446Z,5864.00
2022-11-24T10:58:17.422Z,5796.00
2022-11-24T10:59:17.433Z,6036.00
2022-11-24T11:00:17.360Z,6424.00
2022-11-24T11:01:17.397Z,6640.00
2022-11-24T11:02:17.413Z,6964.00
2022-11-24T11:03:17.300Z,7688.00
2022-11-24T11:04:17.282Z,10668.00
2022-11-24T11:05:17.265Z,8876.00
2022-11-24T11:06:17.280Z,9260.00
2022-11-24T11:07:17.281Z,9848.00
2022-11-24T11:08:17.214Z,9896.00
2022-11-24T11:09:17.195Z,9144.00
2022-11-24T11:10:17.167Z,8672.00
2022-11-24T11:11:17.221Z,8112.00
2022-11-24T11:12:45.817Z,7892.00
2022-11-24T11:13:19.112Z,7176.00
2022-11-24T11:14:17.101Z,6980.00
2022-11-24T11:15:17.070Z,9188.00
2022-11-24T11:16:17.208Z,8328.00
2022-11-24T11:17:17.056Z,6596.00
2022-11-24T11:18:17.024Z,5660.00
2022-11-24T11:19:47.201Z,6876.00
2022-11-24T11:20:18.993Z,5976.00
2022-11-24T11:21:17.024Z,5532.00
2022-11-24T11:22:16.969Z,5816.00
2022-11-24T11:23:16.911Z,6768.00
2022-11-24T11:24:16.895Z,6784.00
2022-11-24T11:25:16.891Z,6716.00
2022-11-24T11:26:16.932Z,6308.00
2022-11-24T11:27:16.858Z,6740.00
2022-11-24T11:28:18.416Z,6880.00
2022-11-24T11:31:20.931Z,7524.00
2022-11-24T11:34:25.222Z,6052.00
2022-11-24T11:35:18.682Z,5420.00
2022-11-24T11:36:16.666Z,5180.00
2022-11-24T11:37:16.661Z,6332.00
2022-11-24T11:38:16.637Z,6296.00
2022-11-24T11:39:16.595Z,6056.00
2022-11-24T11:40:16.579Z,5752.00
2022-11-24T11:41:16.550Z,6320.00
2022-11-24T11:42:37.826Z,5604.00
2022-11-24T11:43:18.527Z,5148.00
2022-11-24T11:44:16.494Z,5628.00
2022-11-24T11:45:16.562Z,5696.00
2022-11-24T11:46:16.654Z,5832.00
2022-11-24T11:47:16.492Z,5844.00
2022-11-24T11:48:17.410Z,5104.00
2022-11-24T11:49:16.391Z,5304.00
2022-11-24T11:50:16.464Z,5632.00
2022-11-24T11:51:23.425Z,5652.00
2022-11-24T11:52:18.360Z,4932.00
2022-11-24T11:53:16.308Z,4712.00
2022-11-24T11:54:16.285Z,4940.00
2022-11-24T11:55:16.269Z,5720.00
2022-11-24T11:56:16.252Z,6108.00
2022-11-24T11:57:16.258Z,7144.00
2022-11-24T11:58:16.215Z,6204.00
2022-11-24T11:59:16.195Z,5840.00
2022-11-24T12:00:16.174Z,5472.00
2022-11-24T12:01:16.153Z,5720.00
2022-11-24T12:02:16.192Z,5400.00
2022-11-24T12:03:16.249Z,5284.00
2022-11-24T12:04:16.150Z,5832.00
2022-11-24T12:05:16.078Z,5956.00
2022-11-24T12:06:16.072Z,5620.00
2022-11-24T12:07:16.109Z,5648.00
2022-11-24T12:08:20.739Z,5252.00
2022-11-24T12:09:20.617Z,5088.00
2022-11-24T12:10:16.995Z,4848.00
2022-11-24T12:11:15.963Z,4464.00
2022-11-24T12:12:15.983Z,3980.00
2022-11-24T12:13:15.916Z,3176.00
2022-11-24T12:14:16.906Z,2568.00
2022-11-24T12:15:15.883Z,2160.00
2022-11-24T12:16:15.910Z,1952.00
2022-11-24T12:17:15.890Z,2220.00
2022-11-24T12:18:40.193Z,3320.00
2022-11-24T12:19:17.804Z,4580.00
2022-11-24T12:20:15.813Z,5036.00
2022-11-24T12:21:17.935Z,5040.00
2022-11-24T12:22:16.747Z,4776.00
2022-11-24T12:23:15.719Z,4436.00
2022-11-24T12:24:15.748Z,4388.00
2022-11-24T12:25:15.709Z,4796.00
2022-11-24T12:26:15.662Z,5292.00
2022-11-24T12:27:19.467Z,5424.00
2022-11-24T12:28:17.639Z,5152.00
2022-11-24T12:29:15.608Z,4448.00
2022-11-24T12:30:15.580Z,3396.00
2022-11-24T12:31:15.621Z,3244.00
2022-11-24T12:32:15.571Z,3560.00
2022-11-24T12:33:15.522Z,3644.00
2022-11-24T12:34:15.516Z,4176.00
2022-11-24T12:35:15.493Z,4532.00
2022-11-24T12:36:15.462Z,4596.00
2022-11-24T12:37:15.471Z,4596.00
2022-11-24T12:38:15.438Z,4780.00
2022-11-24T12:39:15.411Z,4960.00
2022-11-24T12:40:15.380Z,4864.00
2022-11-24T12:41:40.456Z,4436.00
2022-11-24T12:42:17.369Z,3984.00
2022-11-24T12:43:15.325Z,3812.00
2022-11-24T12:44:15.299Z,3908.00
2022-11-24T12:45:15.284Z,4180.00
2022-11-24T12:46:17.442Z,4272.00
2022-11-24T12:47:16.290Z,4380.00